createdAt,value
2018-11-23T00:00:39.285Z,28.70
2018-11-23T00:01:39.279Z,28.80
2018-11-23T00:02:39.965Z,29.30
2018-11-23T00:03:39.253Z,30.20
2018-11-23T00:04:39.243Z,29.30
2018-11-23T00:05:39.235Z,29.40
2018-11-23T00:06:39.219Z,29.10
2018-11-23T00:07:39.216Z,28.60
2018-11-23T00:08:39.204Z,28.90
2018-11-23T00:09:39.188Z,28.80
2018-11-23T00:10:39.178Z,28.10
2018-11-23T00:11:39.170Z,27.80
2018-11-23T00:12:39.149Z,28.00
2018-11-23T00:13:39.141Z,28.90
2018-11-23T00:14:39.131Z,27.30
2018-11-23T00:15:39.118Z,28.30
2018-11-23T00:16:39.105Z,28.50
2018-11-23T00:17:39.096Z,28.90
2018-11-23T00:18:39.085Z,27.90
2018-11-23T00:19:39.069Z,27.70
2018-11-23T00:20:39.061Z,26.30
2018-11-23T00:21:39.053Z,27.30
2018-11-23T00:22:39.035Z,26.40
2018-11-23T00:23:39.026Z,26.70
2018-11-23T00:24:39.016Z,27.00
2018-11-23T00:25:39.003Z,26.40
2018-11-23T00:26:38.994Z,26.60
2018-11-23T00:27:38.983Z,26.80
2018-11-23T00:28:38.970Z,27.00
2018-11-23T00:29:38.956Z,27.70
2018-11-23T00:30:38.950Z,27.00
2018-11-23T00:31:38.936Z,27.40
2018-11-23T00:32:38.929Z,28.10
2018-11-23T00:33:38.911Z,27.80
2018-11-23T00:34:38.905Z,27.30
2018-11-23T00:35:38.894Z,27.30
2018-11-23T00:36:38.879Z,27.60
2018-11-23T00:37:38.870Z,28.90
2018-11-23T00:38:38.857Z,29.10
2018-11-23T00:39:38.847Z,29.70
2018-11-23T00:40:38.839Z,29.10
2018-11-23T00:41:38.823Z,29.70
2018-11-23T00:42:38.814Z,30.60
2018-11-23T00:43:38.805Z,30.50
2018-11-23T00:44:38.797Z,30.70
2018-11-23T00:45:43.074Z,31.30
2018-11-23T00:46:38.767Z,30.70
2018-11-23T00:47:38.757Z,31.20
2018-11-23T00:48:38.743Z,30.20
2018-11-23T00:49:39.400Z,29.70
2018-11-23T00:50:38.722Z,31.00
2018-11-23T00:51:38.706Z,30.60
2018-11-23T00:52:38.696Z,30.80
2018-11-23T00:53:38.694Z,29.40
2018-11-23T00:54:38.677Z,30.60
2018-11-23T00:55:38.660Z,31.70
2018-11-23T00:56:38.653Z,30.90
2018-11-23T00:57:38.642Z,30.90
2018-11-23T00:58:38.632Z,29.50
2018-11-23T00:59:38.618Z,32.10
2018-11-23T01:00:38.606Z,32.00
2018-11-23T01:01:38.591Z,31.70
2018-11-23T01:02:38.584Z,30.30
2018-11-23T01:03:38.572Z,31.40
2018-11-23T01:04:38.557Z,31.80
2018-11-23T01:05:38.557Z,31.60
2018-11-23T01:06:38.537Z,31.60
2018-11-23T01:07:38.526Z,32.50
2018-11-23T01:08:38.512Z,31.40
2018-11-23T01:09:38.507Z,32.70
2018-11-23T01:10:38.487Z,31.80
2018-11-23T01:11:38.477Z,32.80
2018-11-23T01:12:38.474Z,32.90
2018-11-23T01:13:38.457Z,33.40
2018-11-23T01:14:38.443Z,32.10
2018-11-23T01:15:38.442Z,33.10
2018-11-23T01:16:38.425Z,33.50
2018-11-23T01:17:38.412Z,35.50
2018-11-23T01:18:38.400Z,33.20
2018-11-23T01:19:38.391Z,33.90
2018-11-23T01:20:38.375Z,33.70
2018-11-23T01:21:38.365Z,35.90
2018-11-23T01:22:38.357Z,34.40
2018-11-23T01:23:38.340Z,35.00
2018-11-23T01:24:38.331Z,34.80
2018-11-23T01:25:38.318Z,34.70
2018-11-23T01:26:38.307Z,33.50
2018-11-23T01:27:38.293Z,35.00
2018-11-23T01:28:38.288Z,35.40
2018-11-23T01:29:38.272Z,35.50
2018-11-23T01:30:38.261Z,36.10
2018-11-23T01:31:38.250Z,37.00
2018-11-23T01:32:38.240Z,36.40
2018-11-23T01:33:38.223Z,36.40
2018-11-23T01:34:38.216Z,36.30
2018-11-23T01:35:38.208Z,35.30
2018-11-23T01:36:38.196Z,37.20
2018-11-23T01:37:38.179Z,37.00
2018-11-23T01:38:38.175Z,36.50
2018-11-23T01:39:38.155Z,36.60
2018-11-23T01:40:38.772Z,36.30
2018-11-23T01:41:38.134Z,37.70
2018-11-23T01:42:38.125Z,37.30
2018-11-23T01:43:38.115Z,38.20
2018-11-23T01:44:38.110Z,39.40
2018-11-23T01:45:38.095Z,38.60
2018-11-23T01:46:38.078Z,39.10
2018-11-23T01:47:38.068Z,39.80
2018-11-23T01:48:38.057Z,38.10
2018-11-23T01:49:38.043Z,39.20
2018-11-23T01:50:38.033Z,40.60
2018-11-23T01:51:38.025Z,40.60
2018-11-23T01:52:38.007Z,40.70
2018-11-23T01:53:37.995Z,40.90
2018-11-23T01:54:37.992Z,39.00
2018-11-23T01:55:37.974Z,39.60
2018-11-23T01:56:37.963Z,40.30
2018-11-23T01:57:37.955Z,41.50
2018-11-23T01:58:37.941Z,40.70
2018-11-23T01:59:37.934Z,40.50
2018-11-23T02:00:37.918Z,42.70
2018-11-23T02:01:37.910Z,42.40
2018-11-23T02:02:37.903Z,42.00
2018-11-23T02:03:37.883Z,41.80
2018-11-23T02:04:37.875Z,42.20
2018-11-23T02:05:37.857Z,41.40
2018-11-23T02:06:37.854Z,42.20
2018-11-23T02:07:37.837Z,44.00
2018-11-23T02:08:37.826Z,45.80
2018-11-23T02:09:37.813Z,46.00
2018-11-23T02:10:37.803Z,45.40
2018-11-23T02:11:38.076Z,46.90
2018-11-23T02:12:37.781Z,45.30
2018-11-23T02:13:37.780Z,47.40
2018-11-23T02:14:37.760Z,47.90
2018-11-23T02:15:37.745Z,47.80
2018-11-23T02:16:37.735Z,49.20
2018-11-23T02:17:37.729Z,47.70
2018-11-23T02:18:37.711Z,49.10
2018-11-23T02:19:37.702Z,50.10
2018-11-23T02:20:37.693Z,49.50
2018-11-23T02:21:37.676Z,49.30
2018-11-23T02:22:37.664Z,48.60
2018-11-23T02:23:37.653Z,50.80
2018-11-23T02:24:37.643Z,51.10
2018-11-23T02:25:37.633Z,51.20
2018-11-23T02:26:37.621Z,54.10
2018-11-23T02:27:37.613Z,51.00
2018-11-23T02:28:37.594Z,51.40
2018-11-23T02:29:37.587Z,50.80
2018-11-23T02:30:37.578Z,52.10
2018-11-23T02:31:37.560Z,52.60
2018-11-23T02:32:37.550Z,52.60
2018-11-23T02:33:37.545Z,52.50
2018-11-23T02:34:37.525Z,54.10
2018-11-23T02:35:37.516Z,55.20
2018-11-23T02:36:37.504Z,55.10
2018-11-23T02:37:37.494Z,53.70
2018-11-23T02:38:37.480Z,53.20
2018-11-23T02:39:37.469Z,54.70
2018-11-23T02:40:37.459Z,54.20
2018-11-23T02:41:37.450Z,57.20
2018-11-23T02:42:38.419Z,56.20
2018-11-23T02:43:37.423Z,55.80
2018-11-23T02:44:37.408Z,56.40
2018-11-23T02:45:37.404Z,55.80
2018-11-23T02:46:37.390Z,56.40
2018-11-23T02:47:37.378Z,56.50
2018-11-23T02:48:37.362Z,58.30
2018-11-23T02:49:37.354Z,56.50
2018-11-23T02:50:37.343Z,58.70
2018-11-23T02:51:37.328Z,58.60
2018-11-23T02:52:37.318Z,58.20
2018-11-23T02:53:37.309Z,58.60
2018-11-23T02:54:37.297Z,58.60
2018-11-23T02:55:37.285Z,61.70
2018-11-23T02:56:37.278Z,61.60
2018-11-23T02:57:37.262Z,62.00
2018-11-23T02:58:37.256Z,66.10
2018-11-23T02:59:37.237Z,64.30
2018-11-23T03:00:37.225Z,65.20
2018-11-23T03:01:37.215Z,63.30
2018-11-23T03:02:37.204Z,63.90
2018-11-23T03:03:37.191Z,63.70
2018-11-23T03:04:37.178Z,63.30
2018-11-23T03:05:37.168Z,65.40
2018-11-23T03:06:37.157Z,63.80
2018-11-23T03:07:37.148Z,64.80
2018-11-23T03:08:37.129Z,64.50
2018-11-23T03:09:37.122Z,64.30
2018-11-23T03:10:37.108Z,66.30
2018-11-23T03:11:37.097Z,67.90
2018-11-23T03:12:37.086Z,68.00
2018-11-23T03:13:37.081Z,69.40
2018-11-23T03:14:37.062Z,64.50
2018-11-23T03:15:37.052Z,68.10
2018-11-23T03:16:37.042Z,69.30
2018-11-23T03:17:37.028Z,69.50
2018-11-23T03:18:37.017Z,70.00
2018-11-23T03:19:37.011Z,69.80
2018-11-23T03:20:36.999Z,68.20
2018-11-23T03:21:36.984Z,67.50
2018-11-23T03:22:36.969Z,71.40
2018-11-23T03:23:36.962Z,71.60
2018-11-23T03:24:36.943Z,68.20
2018-11-23T03:25:36.933Z,69.60
2018-11-23T03:26:36.925Z,72.20
2018-11-23T03:27:36.910Z,70.50
2018-11-23T03:28:36.899Z,69.80
2018-11-23T03:29:36.890Z,68.50
2018-11-23T03:30:36.876Z,70.50
2018-11-23T03:31:36.862Z,67.70
2018-11-23T03:32:36.854Z,72.50
2018-11-23T03:33:36.840Z,73.60
2018-11-23T03:34:36.831Z,73.60
2018-11-23T03:35:36.820Z,68.30
2018-11-23T03:36:36.813Z,72.30
2018-11-23T03:37:36.795Z,72.10
2018-11-23T03:38:36.783Z,71.30
2018-11-23T03:39:36.776Z,70.60
2018-11-23T03:40:36.759Z,72.50
2018-11-23T03:41:36.748Z,74.40
2018-11-23T03:42:36.737Z,70.70
2018-11-23T03:43:36.724Z,70.90
2018-11-23T03:44:36.709Z,71.40
2018-11-23T03:45:36.701Z,70.50
2018-11-23T03:46:36.693Z,69.30
2018-11-23T03:47:36.681Z,72.40
2018-11-23T03:48:36.665Z,69.20
2018-11-23T03:49:36.664Z,69.50
2018-11-23T03:50:36.659Z,69.20
2018-11-23T03:51:36.634Z,69.10
2018-11-23T03:52:36.620Z,67.80
2018-11-23T03:53:36.609Z,69.00
2018-11-23T03:54:36.598Z,66.90
2018-11-23T03:55:36.583Z,71.50
2018-11-23T03:56:36.577Z,67.60
2018-11-23T03:57:37.426Z,69.50
2018-11-23T03:58:36.547Z,70.80
2018-11-23T03:59:36.543Z,67.80
2018-11-23T04:00:36.526Z,72.40
2018-11-23T04:01:36.516Z,68.40
2018-11-23T04:02:36.510Z,69.80
2018-11-23T04:03:36.495Z,71.60
2018-11-23T04:04:36.487Z,66.80
2018-11-23T04:05:36.466Z,72.50
2018-11-23T04:06:36.462Z,72.20
2018-11-23T04:07:36.446Z,68.10
2018-11-23T04:08:36.437Z,68.00
2018-11-23T04:09:36.420Z,71.00
2018-11-23T04:10:36.413Z,68.90
2018-11-23T04:11:36.400Z,69.60
2018-11-23T04:12:36.388Z,67.90
2018-11-23T04:13:36.379Z,71.00
2018-11-23T04:14:36.367Z,68.50
2018-11-23T04:15:36.353Z,71.20
2018-11-23T04:16:36.345Z,71.70
2018-11-23T04:17:36.329Z,69.70
2018-11-23T04:18:36.319Z,67.70
2018-11-23T04:19:36.315Z,70.30
2018-11-23T04:20:36.294Z,72.00
2018-11-23T04:21:36.283Z,71.90
2018-11-23T04:22:36.281Z,70.40
2018-11-23T04:23:36.260Z,68.70
2018-11-23T04:24:36.250Z,71.20
2018-11-23T04:25:36.239Z,69.60
2018-11-23T04:26:36.228Z,71.90
2018-11-23T04:27:36.218Z,71.50
2018-11-23T04:28:36.203Z,71.90
2018-11-23T04:29:36.193Z,72.20
2018-11-23T04:30:36.182Z,70.20
2018-11-23T04:31:36.169Z,72.30
2018-11-23T04:32:36.162Z,71.60
2018-11-23T04:33:36.142Z,68.20
2018-11-23T04:34:36.135Z,69.50
2018-11-23T04:35:36.117Z,71.20
2018-11-23T04:36:36.110Z,70.10
2018-11-23T04:37:36.095Z,73.00
2018-11-23T04:38:36.088Z,73.30
2018-11-23T04:39:36.076Z,71.50
2018-11-23T04:40:36.065Z,72.00
2018-11-23T04:41:36.053Z,71.00
2018-11-23T04:42:36.043Z,72.80
2018-11-23T04:43:36.028Z,70.80
2018-11-23T04:44:36.019Z,72.30
2018-11-23T04:45:36.019Z,73.10
2018-11-23T04:46:35.993Z,74.30
2018-11-23T04:47:35.983Z,72.90
2018-11-23T04:48:35.982Z,71.80
2018-11-23T04:49:35.962Z,71.10
2018-11-23T04:50:35.948Z,71.40
2018-11-23T04:51:35.936Z,70.70
2018-11-23T04:52:35.931Z,72.40
2018-11-23T04:53:35.913Z,75.90
2018-11-23T04:54:35.904Z,73.80
2018-11-23T04:55:35.893Z,75.90
2018-11-23T04:56:35.878Z,72.60
2018-11-23T04:57:35.863Z,74.30
2018-11-23T04:58:35.861Z,72.10
2018-11-23T04:59:35.842Z,72.40
2018-11-23T05:00:35.833Z,73.50
2018-11-23T05:01:35.821Z,72.80
2018-11-23T05:02:35.809Z,73.40
2018-11-23T05:03:35.794Z,73.50
2018-11-23T05:04:35.787Z,75.20
2018-11-23T05:05:35.776Z,75.20
2018-11-23T05:06:35.761Z,75.00
2018-11-23T05:07:35.749Z,76.10
2018-11-23T05:08:35.743Z,73.20
2018-11-23T05:09:35.729Z,74.70
2018-11-23T05:10:35.715Z,74.80
2018-11-23T05:11:35.703Z,74.30
2018-11-23T05:12:35.693Z,76.60
2018-11-23T05:13:35.681Z,74.20
2018-11-23T05:14:35.669Z,73.60
2018-11-23T05:15:35.660Z,75.50
2018-11-23T05:16:35.643Z,73.40
2018-11-23T05:17:35.633Z,75.60
2018-11-23T05:18:35.620Z,75.10
2018-11-23T05:19:35.608Z,72.40
2018-11-23T05:20:35.596Z,76.00
2018-11-23T05:21:35.589Z,75.60
2018-11-23T05:22:35.577Z,75.90
2018-11-23T05:23:35.570Z,77.30
2018-11-23T05:24:35.552Z,75.20
2018-11-23T05:25:35.544Z,76.50
2018-11-23T05:26:35.528Z,77.40
2018-11-23T05:27:35.523Z,77.40
2018-11-23T05:28:35.510Z,73.80
2018-11-23T05:29:35.500Z,75.80
2018-11-23T05:30:35.482Z,75.20
2018-11-23T05:31:35.477Z,77.30
2018-11-23T05:32:35.461Z,75.90
2018-11-23T05:33:35.450Z,78.40
2018-11-23T05:34:35.446Z,75.50
2018-11-23T05:35:35.427Z,76.10
2018-11-23T05:36:35.413Z,76.40
2018-11-23T05:37:35.401Z,77.10
2018-11-23T05:38:35.395Z,76.80
2018-11-23T05:39:35.378Z,75.80
2018-11-23T05:40:35.370Z,77.60
2018-11-23T05:41:35.360Z,81.50
2018-11-23T05:42:35.344Z,78.90
2018-11-23T05:43:35.337Z,77.10
2018-11-23T05:44:35.327Z,77.00
2018-11-23T05:45:35.308Z,80.60
2018-11-23T05:46:35.297Z,79.40
2018-11-23T05:47:35.287Z,78.90
2018-11-23T05:48:35.277Z,77.60
2018-11-23T05:49:35.261Z,77.30
2018-11-23T05:50:35.255Z,77.50
2018-11-23T05:51:35.285Z,76.50
2018-11-23T05:52:35.225Z,77.80
2018-11-23T05:53:35.218Z,76.30
2018-11-23T05:54:35.211Z,77.60
2018-11-23T05:55:35.194Z,76.90
2018-11-23T05:56:35.183Z,76.90
2018-11-23T05:57:35.177Z,74.70
2018-11-23T05:58:35.159Z,73.80
2018-11-23T05:59:35.148Z,76.40
2018-11-23T06:00:35.139Z,75.80
2018-11-23T06:01:35.125Z,76.10
2018-11-23T06:02:35.118Z,75.60
2018-11-23T06:03:35.103Z,78.00
2018-11-23T06:04:35.094Z,77.00
2018-11-23T06:05:35.077Z,79.00
2018-11-23T06:06:41.988Z,75.50
2018-11-23T06:07:35.057Z,76.50
2018-11-23T06:08:35.045Z,78.90
2018-11-23T06:09:35.030Z,79.10
2018-11-23T06:10:35.026Z,78.70
2018-11-23T06:11:35.012Z,77.90
2018-11-23T06:12:35.001Z,80.70
2018-11-23T06:13:34.997Z,80.30
2018-11-23T06:14:34.977Z,82.00
2018-11-23T06:15:34.963Z,78.40
2018-11-23T06:16:34.956Z,76.60
2018-11-23T06:17:34.944Z,78.70
2018-11-23T06:18:34.932Z,78.10
2018-11-23T06:19:34.919Z,79.70
2018-11-23T06:20:34.913Z,78.50
2018-11-23T06:21:34.895Z,79.60
2018-11-23T06:22:34.885Z,79.00
2018-11-23T06:23:34.878Z,77.30
2018-11-23T06:24:34.865Z,78.20
2018-11-23T06:25:34.848Z,78.90
2018-11-23T06:26:34.845Z,75.00
2018-11-23T06:27:34.841Z,75.50
2018-11-23T06:28:34.820Z,73.90
2018-11-23T06:29:34.812Z,78.40
2018-11-23T06:30:34.797Z,73.50
2018-11-23T06:31:34.786Z,71.50
2018-11-23T06:32:34.775Z,71.70
2018-11-23T06:33:35.527Z,72.80
2018-11-23T06:34:34.754Z,74.70
2018-11-23T06:35:34.740Z,71.50
2018-11-23T06:36:34.730Z,73.10
2018-11-23T06:37:34.725Z,71.80
2018-11-23T06:38:34.707Z,67.80
2018-11-23T06:39:34.698Z,71.60
2018-11-23T06:40:34.687Z,70.00
2018-11-23T06:41:34.675Z,69.60
2018-11-23T06:42:34.666Z,69.60
2018-11-23T06:43:34.654Z,68.50
2018-11-23T06:44:34.643Z,68.70
2018-11-23T06:45:35.529Z,71.00
2018-11-23T06:46:34.618Z,69.20
2018-11-23T06:47:34.604Z,69.70
2018-11-23T06:48:34.597Z,70.80
2018-11-23T06:49:34.583Z,66.70
2018-11-23T06:50:34.575Z,68.70
2018-11-23T06:51:34.563Z,67.40
2018-11-23T06:52:34.551Z,67.00
2018-11-23T06:53:34.542Z,69.30
2018-11-23T06:54:34.532Z,68.50
2018-11-23T06:55:34.517Z,67.70
2018-11-23T06:56:34.504Z,66.40
2018-11-23T06:57:34.496Z,70.30
2018-11-23T06:58:34.482Z,67.90
2018-11-23T06:59:34.472Z,69.60
2018-11-23T07:00:34.468Z,68.60
2018-11-23T07:01:34.450Z,67.30
2018-11-23T07:02:34.440Z,68.80
2018-11-23T07:03:34.430Z,69.10
2018-11-23T07:04:34.415Z,69.50
2018-11-23T07:05:34.407Z,70.10
2018-11-23T07:06:34.394Z,69.40
2018-11-23T07:07:34.384Z,70.40
2018-11-23T07:08:34.375Z,71.20
2018-11-23T07:09:34.361Z,70.40
2018-11-23T07:10:34.352Z,70.90
2018-11-23T07:11:34.337Z,70.60
2018-11-23T07:12:34.327Z,69.00
2018-11-23T07:13:34.322Z,72.90
2018-11-23T07:14:34.305Z,71.90
2018-11-23T07:15:34.292Z,70.60
2018-11-23T07:16:34.287Z,73.60
2018-11-23T07:17:34.271Z,72.20
2018-11-23T07:18:34.263Z,72.60
2018-11-23T07:19:34.257Z,71.00
2018-11-23T07:20:34.251Z,70.40
2018-11-23T07:21:34.233Z,71.40
2018-11-23T07:22:34.222Z,70.70
2018-11-23T07:23:34.206Z,70.20
2018-11-23T07:24:34.196Z,72.50
2018-11-23T07:25:34.190Z,71.60
2018-11-23T07:26:34.173Z,73.90
2018-11-23T07:27:34.162Z,75.90
2018-11-23T07:28:34.162Z,75.40
2018-11-23T07:29:34.146Z,77.40
2018-11-23T07:30:34.138Z,77.30
2018-11-23T07:31:34.132Z,77.20
2018-11-23T07:32:34.109Z,77.50
2018-11-23T07:33:34.103Z,76.70
2018-11-23T07:34:34.094Z,76.30
2018-11-23T07:35:34.074Z,69.20
2018-11-23T07:36:34.064Z,70.80
2018-11-23T07:37:34.063Z,72.50
2018-11-23T07:38:34.044Z,70.60
2018-11-23T07:39:34.034Z,73.00
2018-11-23T07:40:34.026Z,72.40
2018-11-23T07:41:34.014Z,70.30
2018-11-23T07:42:34.000Z,67.60
2018-11-23T07:43:33.995Z,67.50
2018-11-23T07:44:33.979Z,67.20
2018-11-23T07:45:33.968Z,67.60
2018-11-23T07:46:33.960Z,67.40
2018-11-23T07:47:33.948Z,67.20
2018-11-23T07:48:33.936Z,65.90
2018-11-23T07:49:33.932Z,66.00
2018-11-23T07:50:33.913Z,67.30
2018-11-23T07:51:39.096Z,64.60
2018-11-23T07:52:33.894Z,63.50
2018-11-23T07:53:33.882Z,64.20
2018-11-23T07:54:33.873Z,63.10
2018-11-23T07:55:33.863Z,65.40
2018-11-23T07:56:33.850Z,65.70
2018-11-23T07:57:33.842Z,67.10
2018-11-23T07:58:33.831Z,66.20
2018-11-23T07:59:33.816Z,66.90
2018-11-23T08:00:33.807Z,65.70
2018-11-23T08:01:33.803Z,66.90
2018-11-23T08:02:33.788Z,65.80
2018-11-23T08:03:33.774Z,67.60
2018-11-23T08:04:33.765Z,65.80
2018-11-23T08:05:33.759Z,64.70
2018-11-23T08:06:33.744Z,66.30
2018-11-23T08:07:33.739Z,65.10
2018-11-23T08:08:33.730Z,64.50
2018-11-23T08:09:33.714Z,63.30
2018-11-23T08:10:33.701Z,62.60
2018-11-23T08:11:33.694Z,65.40
2018-11-23T08:12:33.685Z,65.40
2018-11-23T08:13:33.669Z,64.10
2018-11-23T08:14:33.660Z,66.40
2018-11-23T08:15:33.657Z,64.70
2018-11-23T08:16:33.640Z,64.80
2018-11-23T08:17:33.627Z,62.70
2018-11-23T08:18:33.616Z,64.60
2018-11-23T08:19:33.605Z,63.60
2018-11-23T08:20:33.598Z,64.60
2018-11-23T08:21:33.590Z,64.00
2018-11-23T08:22:33.577Z,64.50
2018-11-23T08:23:33.564Z,65.10
2018-11-23T08:24:33.557Z,65.30
2018-11-23T08:25:33.542Z,67.10
2018-11-23T08:26:33.534Z,70.40
2018-11-23T08:27:33.531Z,67.90
2018-11-23T08:28:33.514Z,67.40
2018-11-23T08:29:33.500Z,68.90
2018-11-23T08:30:33.501Z,69.60
2018-11-23T08:31:34.044Z,73.00
2018-11-23T08:32:33.470Z,68.10
2018-11-23T08:33:33.455Z,66.90
2018-11-23T08:34:33.446Z,70.90
2018-11-23T08:35:33.435Z,68.10
2018-11-23T08:36:33.427Z,66.70
2018-11-23T08:37:33.419Z,67.10
2018-11-23T08:38:33.455Z,66.30
2018-11-23T08:39:33.396Z,66.20
2018-11-23T08:40:33.386Z,63.90
2018-11-23T08:41:33.379Z,63.90
2018-11-23T08:42:33.365Z,66.50
2018-11-23T08:43:33.354Z,64.00
2018-11-23T08:44:33.347Z,63.30
2018-11-23T08:45:33.339Z,63.20
2018-11-23T08:46:33.323Z,63.90
2018-11-23T08:47:34.042Z,65.60
2018-11-23T08:48:33.305Z,63.10
2018-11-23T08:49:33.571Z,64.00
2018-11-23T08:50:33.284Z,64.20
2018-11-23T08:51:33.268Z,64.90
2018-11-23T08:52:33.258Z,63.40
2018-11-23T08:53:33.252Z,63.00
2018-11-23T08:54:33.236Z,63.70
2018-11-23T08:55:33.229Z,63.00
2018-11-23T08:56:33.219Z,63.00
2018-11-23T08:57:33.206Z,63.80
2018-11-23T08:58:33.195Z,61.50
2018-11-23T08:59:33.189Z,66.00
2018-11-23T09:00:33.175Z,62.70
2018-11-23T09:01:33.164Z,61.90
2018-11-23T09:02:33.176Z,61.00
2018-11-23T09:03:33.141Z,61.90
2018-11-23T09:04:33.133Z,60.80
2018-11-23T09:05:33.125Z,59.90
2018-11-23T09:06:33.115Z,60.00
2018-11-23T09:07:33.102Z,57.80
2018-11-23T09:08:33.089Z,59.30
2018-11-23T09:09:33.990Z,60.00
2018-11-23T09:10:34.162Z,57.70
2018-11-23T09:11:33.059Z,60.10
2018-11-23T09:12:33.050Z,59.40
2018-11-23T09:13:33.043Z,59.60
2018-11-23T09:14:33.030Z,59.70
2018-11-23T09:15:33.015Z,59.20
2018-11-23T09:16:33.008Z,60.20
2018-11-23T09:17:32.999Z,58.50
2018-11-23T09:18:32.987Z,59.20
2018-11-23T09:19:32.978Z,57.40
2018-11-23T09:20:32.975Z,58.50
2018-11-23T09:21:32.957Z,57.70
2018-11-23T09:22:32.948Z,57.50
2018-11-23T09:23:32.935Z,58.00
2018-11-23T09:24:32.931Z,58.60
2018-11-23T09:25:32.914Z,58.70
2018-11-23T09:26:32.906Z,59.60
2018-11-23T09:27:32.896Z,59.80
2018-11-23T09:28:32.886Z,57.60
2018-11-23T09:29:32.876Z,57.40
2018-11-23T09:30:32.866Z,59.00
2018-11-23T09:31:32.855Z,57.20
2018-11-23T09:32:32.845Z,56.60
2018-11-23T09:33:32.834Z,58.20
2018-11-23T09:34:33.216Z,58.60
2018-11-23T09:35:32.890Z,56.40
2018-11-23T09:36:32.919Z,54.70
2018-11-23T09:37:32.796Z,56.40
2018-11-23T09:38:32.781Z,57.00
2018-11-23T09:39:32.771Z,57.00
2018-11-23T09:40:32.765Z,57.20
2018-11-23T09:41:32.754Z,57.40
2018-11-23T09:42:32.743Z,56.90
2018-11-23T09:43:32.732Z,56.40
2018-11-23T09:44:32.727Z,55.20
2018-11-23T09:45:32.717Z,56.50
2018-11-23T09:46:32.711Z,54.90
2018-11-23T09:47:32.690Z,56.60
2018-11-23T09:48:32.685Z,55.60
2018-11-23T09:49:33.650Z,55.50
2018-11-23T09:50:32.670Z,57.80
2018-11-23T09:51:32.688Z,56.30
2018-11-23T09:52:32.645Z,56.30
2018-11-23T09:53:32.632Z,55.90
2018-11-23T09:54:32.623Z,56.30
2018-11-23T09:55:32.615Z,56.30
2018-11-23T09:56:32.611Z,55.20
2018-11-23T09:57:32.593Z,57.20
2018-11-23T09:58:32.582Z,54.70
2018-11-23T09:59:32.732Z,54.90
2018-11-23T10:00:32.561Z,56.60
2018-11-23T10:01:32.551Z,54.70
2018-11-23T10:02:32.798Z,56.10
2018-11-23T10:03:32.534Z,55.20
2018-11-23T10:04:32.525Z,56.20
2018-11-23T10:05:32.520Z,56.20
2018-11-23T10:06:32.505Z,55.30
2018-11-23T10:07:32.494Z,55.50
2018-11-23T10:08:37.155Z,55.40
2018-11-23T10:09:32.474Z,54.70
2018-11-23T10:10:32.468Z,53.50
2018-11-23T10:11:32.457Z,55.70
2018-11-23T10:12:32.477Z,55.40
2018-11-23T10:13:32.435Z,55.40
2018-11-23T10:14:32.424Z,55.00
2018-11-23T10:15:32.418Z,55.30
2018-11-23T10:16:32.404Z,52.50
2018-11-23T10:17:32.405Z,54.20
2018-11-23T10:18:32.387Z,53.10
2018-11-23T10:19:32.377Z,53.00
2018-11-23T10:20:32.364Z,52.20
2018-11-23T10:21:32.354Z,52.10
2018-11-23T10:22:32.437Z,52.60
2018-11-23T10:23:32.355Z,53.60
2018-11-23T10:24:32.341Z,51.30
2018-11-23T10:25:32.317Z,51.10
2018-11-23T10:26:32.307Z,51.70
2018-11-23T10:27:32.307Z,53.00
2018-11-23T10:28:32.443Z,51.80
2018-11-23T10:29:32.273Z,51.60
2018-11-23T10:30:32.270Z,52.10
2018-11-23T10:31:32.254Z,51.90
2018-11-23T10:32:32.244Z,50.60
2018-11-23T10:33:32.237Z,51.70
2018-11-23T10:34:32.295Z,51.80
2018-11-23T10:35:32.407Z,51.80
2018-11-23T10:36:32.206Z,51.50
2018-11-23T10:37:32.209Z,51.90
2018-11-23T10:38:32.188Z,51.70
2018-11-23T10:39:32.178Z,52.40
2018-11-23T10:40:32.240Z,53.40
2018-11-23T10:41:32.161Z,51.90
2018-11-23T10:42:32.166Z,52.90
2018-11-23T10:43:32.137Z,54.70
2018-11-23T10:44:32.127Z,54.50
2018-11-23T10:45:32.116Z,54.40
2018-11-23T10:46:32.113Z,54.20
2018-11-23T10:47:32.097Z,52.70
2018-11-23T10:48:33.101Z,54.50
2018-11-23T10:49:32.083Z,52.70
2018-11-23T10:50:32.073Z,53.90
2018-11-23T10:51:32.058Z,53.10
2018-11-23T10:52:32.053Z,50.70
2018-11-23T10:53:32.043Z,52.50
2018-11-23T10:54:32.042Z,52.10
2018-11-23T10:55:32.121Z,51.20
2018-11-23T10:56:32.015Z,51.90
2018-11-23T10:57:32.001Z,49.50
2018-11-23T10:58:31.991Z,49.80
2018-11-23T10:59:31.980Z,48.80
2018-11-23T11:00:31.971Z,49.70
2018-11-23T11:01:31.974Z,49.50
2018-11-23T11:02:32.162Z,48.10
2018-11-23T11:03:31.968Z,49.60
2018-11-23T11:04:31.936Z,49.60
2018-11-23T11:05:32.540Z,50.10
2018-11-23T11:06:31.922Z,50.50
2018-11-23T11:07:31.935Z,49.70
2018-11-23T11:08:31.894Z,50.30
2018-11-23T11:09:31.884Z,50.10
2018-11-23T11:10:33.996Z,49.20
2018-11-23T11:11:33.572Z,49.40
2018-11-23T11:12:31.861Z,49.00
2018-11-23T11:13:31.882Z,49.40
2018-11-23T11:14:31.837Z,51.50
2018-11-23T11:15:31.830Z,52.50
2018-11-23T11:16:31.816Z,51.50
2018-11-23T11:17:31.809Z,51.70
2018-11-23T11:18:31.799Z,53.40
2018-11-23T11:19:32.026Z,53.00
2018-11-23T11:20:31.904Z,51.20
2018-11-23T11:21:31.789Z,51.90
2018-11-23T11:22:31.761Z,51.10
2018-11-23T11:23:31.749Z,51.40
2018-11-23T11:24:31.737Z,50.60
2018-11-23T11:25:31.730Z,50.60
2018-11-23T11:26:31.722Z,51.30
2018-11-23T11:27:31.711Z,51.20
2018-11-23T11:28:31.706Z,50.20
2018-11-23T11:29:31.692Z,49.60
2018-11-23T11:30:31.683Z,50.40
2018-11-23T11:31:31.672Z,50.50
2018-11-23T11:32:31.657Z,49.60
2018-11-23T11:33:31.655Z,52.10
2018-11-23T11:34:31.693Z,50.70
2018-11-23T11:35:31.634Z,50.00
2018-11-23T11:36:31.622Z,50.10
2018-11-23T11:37:31.612Z,51.40
2018-11-23T11:38:31.614Z,48.50
2018-11-23T11:39:31.595Z,50.30
2018-11-23T11:40:31.589Z,50.80
2018-11-23T11:41:31.583Z,50.70
2018-11-23T11:42:31.566Z,49.50
2018-11-23T11:43:31.553Z,51.10
2018-11-23T11:44:31.548Z,50.40
2018-11-23T11:45:31.538Z,49.00
2018-11-23T11:46:31.783Z,49.80
2018-11-23T11:47:31.517Z,49.50
2018-11-23T11:48:31.509Z,49.00
2018-11-23T11:49:31.509Z,48.50
2018-11-23T11:50:31.495Z,48.80
2018-11-23T11:51:31.477Z,48.30
2018-11-23T11:52:31.468Z,49.10
2018-11-23T11:53:31.461Z,48.60
2018-11-23T11:54:31.447Z,49.10
2018-11-23T11:55:31.436Z,49.20
2018-11-23T11:56:31.434Z,49.20
2018-11-23T11:57:31.425Z,48.70
2018-11-23T11:58:31.566Z,47.90
2018-11-23T11:59:31.524Z,48.20
2018-11-23T12:00:31.391Z,48.60
2018-11-23T12:01:31.382Z,46.60
2018-11-23T12:02:31.365Z,49.10
2018-11-23T12:03:31.361Z,49.50
2018-11-23T12:04:31.348Z,48.10
2018-11-23T12:05:31.346Z,47.70
2018-11-23T12:06:31.368Z,50.00
2018-11-23T12:07:31.324Z,48.80
2018-11-23T12:08:31.312Z,48.00
2018-11-23T12:09:31.302Z,47.50
2018-11-23T12:10:31.290Z,47.30
2018-11-23T12:11:31.283Z,47.60
2018-11-23T12:12:31.269Z,47.80
2018-11-23T12:13:31.270Z,48.30
2018-11-23T12:14:31.252Z,48.40
2018-11-23T12:15:31.248Z,47.80
2018-11-23T12:16:31.241Z,47.40
2018-11-23T12:17:31.220Z,47.40
2018-11-23T12:18:31.210Z,46.40
2018-11-23T12:19:31.203Z,47.30
2018-11-23T12:20:31.190Z,47.70
2018-11-23T12:21:31.267Z,48.30
2018-11-23T12:22:31.171Z,47.00
2018-11-23T12:23:31.161Z,47.30
2018-11-23T12:24:31.152Z,46.70
2018-11-23T12:25:31.399Z,46.30
2018-11-23T12:26:31.132Z,46.20
2018-11-23T12:27:31.124Z,46.80
2018-11-23T12:28:31.112Z,46.10
2018-11-23T12:29:31.104Z,48.20
2018-11-23T12:30:31.092Z,47.30
2018-11-23T12:31:31.086Z,47.60
2018-11-23T12:32:31.079Z,46.60
2018-11-23T12:33:31.085Z,47.50
2018-11-23T12:34:31.051Z,45.90
2018-11-23T12:35:31.236Z,47.40
2018-11-23T12:36:31.037Z,46.90
2018-11-23T12:37:31.031Z,47.30
2018-11-23T12:38:31.014Z,47.20
2018-11-23T12:39:31.006Z,47.60
2018-11-23T12:40:30.998Z,47.00
2018-11-23T12:41:30.990Z,46.40
2018-11-23T12:42:30.978Z,47.20
2018-11-23T12:43:30.965Z,46.60
2018-11-23T12:44:30.954Z,47.10
2018-11-23T12:45:30.943Z,45.80
2018-11-23T12:46:30.938Z,46.10
2018-11-23T12:47:30.928Z,46.40
2018-11-23T12:48:30.922Z,47.20
2018-11-23T12:49:31.516Z,49.30
2018-11-23T12:50:30.908Z,46.10
2018-11-23T12:51:30.958Z,46.90
2018-11-23T12:52:30.884Z,47.40